createdAt,value
2018-11-28T05:03:13.462Z,2.00
2018-11-28T05:05:36.174Z,2.00
2018-11-28T05:07:58.934Z,1.90
2018-11-28T05:10:24.415Z,1.90
2018-11-28T05:12:47.166Z,1.80
2018-11-28T06:01:26.773Z,1.50
2018-11-28T06:03:49.437Z,1.60
2018-11-28T06:06:12.232Z,1.60
2018-11-28T06:08:34.937Z,1.60
2018-11-28T06:10:57.584Z,1.70
2018-11-28T06:13:20.247Z,1.80
2018-11-28T07:01:59.395Z,2.50
2018-11-28T07:04:22.061Z,2.50
2018-11-28T07:06:44.714Z,2.50
2018-11-28T07:09:07.923Z,2.50
2018-11-28T07:11:30.595Z,2.50
2018-11-28T07:13:53.229Z,2.60
2018-11-28T08:02:35.077Z,3.60
2018-11-28T08:04:57.755Z,3.70
2018-11-28T08:07:20.421Z,3.80
2018-11-28T08:09:43.133Z,3.90
2018-11-28T08:12:05.958Z,4.00
2018-11-28T08:14:28.614Z,4.10
2018-11-28T09:00:26.921Z,5.30
2018-11-28T09:02:51.019Z,5.40
2018-11-28T09:05:14.272Z,5.30
2018-11-28T09:07:37.331Z,5.40
2018-11-28T09:10:00.375Z,5.40
2018-11-28T09:12:23.324Z,5.50
2018-11-28T09:14:46.972Z,5.60
2018-11-28T10:00:22.324Z,7.40
2018-11-28T10:02:45.059Z,7.10
2018-11-28T10:05:13.717Z,6.90
2018-11-28T10:07:36.385Z,6.70
2018-11-28T10:10:06.753Z,6.60
2018-11-28T10:12:29.450Z,6.60
2018-11-28T10:14:52.138Z,6.60
2018-11-28T10:20:20.227Z,6.70
2018-11-28T10:22:43.181Z,6.70
2018-11-28T10:25:07.435Z,6.80
2018-11-28T10:27:30.144Z,7.00
2018-11-28T10:29:52.872Z,7.20
2018-11-28T10:32:15.549Z,7.50
2018-11-28T10:34:38.219Z,7.70
2018-11-28T10:37:00.900Z,7.70
2018-11-28T10:39:23.653Z,7.60
2018-11-28T10:41:46.354Z,7.80
2018-11-28T10:44:09.038Z,8.00
2018-11-28T10:46:31.739Z,8.10
2018-11-28T10:48:54.470Z,8.50
2018-11-28T10:51:17.133Z,8.90
2018-11-28T10:53:39.858Z,9.20
2018-11-28T10:56:02.546Z,9.50
2018-11-28T10:58:25.333Z,9.70
2018-11-28T11:00:53.951Z,10.20
2018-11-28T11:03:22.064Z,10.40
2018-11-28T11:05:50.306Z,10.10
2018-11-28T11:08:18.902Z,10.20
2018-11-28T11:10:47.289Z,9.90
2018-11-28T11:13:15.789Z,9.60
2018-11-28T12:01:55.433Z,7.90
2018-11-28T12:04:18.130Z,8.10
2018-11-28T12:06:40.786Z,8.10
2018-11-28T12:09:04.243Z,8.00
2018-11-28T12:11:26.957Z,7.90
2018-11-28T12:13:49.617Z,7.90
2018-11-28T13:02:30.796Z,11.60
2018-11-28T13:04:53.521Z,11.90
2018-11-28T13:07:16.259Z,12.00
2018-11-28T13:09:38.949Z,12.10
2018-11-28T13:12:01.667Z,12.10
2018-11-28T13:14:24.357Z,12.20
2018-11-28T14:00:13.023Z,6.50
2018-11-28T14:02:35.843Z,6.30
2018-11-28T14:04:58.496Z,6.20
2018-11-28T14:07:21.239Z,6.10
2018-11-28T14:09:43.986Z,6.00
2018-11-28T14:12:06.681Z,5.90
2018-11-28T14:14:29.375Z,5.90
2018-11-28T15:00:21.474Z,4.40
2018-11-28T15:02:44.817Z,4.20
2018-11-28T15:05:17.985Z,4.10
2018-11-28T15:07:40.622Z,4.00
2018-11-28T15:10:03.445Z,3.80
2018-11-28T15:12:27.277Z,3.70
2018-11-28T15:14:49.993Z,3.60
2018-11-28T16:00:24.578Z,2.20
2018-11-28T16:02:47.274Z,2.30
2018-11-28T16:05:10.002Z,2.20
2018-11-28T16:07:32.657Z,2.20
2018-11-28T16:10:01.122Z,2.10
2018-11-28T16:12:23.857Z,2.10
2018-11-28T16:14:46.563Z,2.00
2018-11-28T17:00:24.399Z,1.20
2018-11-28T17:02:47.185Z,1.20
2018-11-28T17:05:17.026Z,1.20
2018-11-28T17:07:40.002Z,1.10
2018-11-28T18:15:14.178Z,1.80
2018-11-28T18:17:36.909Z,1.80
2018-11-28T18:19:59.609Z,1.80
2018-11-28T18:22:22.292Z,1.80
2018-11-28T18:24:44.971Z,1.80
2018-11-28T18:27:07.634Z,1.80
2018-11-28T18:29:30.283Z,1.70
2018-11-28T19:02:37.940Z,1.30
2018-11-28T19:05:00.697Z,1.40
2018-11-28T19:07:23.361Z,1.40
2018-11-28T19:09:52.790Z,1.40
2018-11-28T19:12:15.457Z,1.40
2018-11-28T19:14:38.298Z,1.30
2018-11-28T20:00:16.337Z,1.10
2018-11-28T20:02:39.192Z,1.10
2018-11-28T20:05:01.892Z,1.20
2018-11-28T20:07:27.487Z,1.10
2018-11-28T20:09:54.698Z,1.10
2018-11-28T20:12:17.373Z,1.20
2018-11-28T20:14:40.054Z,1.10
2018-11-28T21:00:21.754Z,1.00
2018-11-28T21:02:46.757Z,1.10
2018-11-28T21:05:10.354Z,1.20
2018-11-28T21:07:33.268Z,1.10
2018-11-28T21:10:00.842Z,1.20
2018-11-28T21:12:23.563Z,1.20
2018-11-28T21:14:46.329Z,1.20
